METAR Data
IDs: Format: Raw Decoded Include TAF

Data at: 1453 UTC 18 Aug 2019

PAAK 181356Z AUTO 12015KT 10SM OVC020 10/09 A3016 RMK AO2 SLP214 T01000089 PNO $
PAAK 181310Z AUTO 13011KT 10SM BKN020 09/08 A3017 RMK AO2 PNO $
PAAK 181256Z AUTO 12012KT 10SM FEW020 09/08 A3016 RMK AO2 SLP215 T00940083 PNO $
PAAK 181222Z AUTO 14012KT 9SM SCT018 09/08 A3017 RMK AO2 PNO $
PAAK 181156Z AUTO 14011KT 10SM SCT014 OVC018 10/08 A3018 RMK AO2 WSHFT 1102 SLP220 6//// 7//// T01000083 10117 20089 58012 PNO $
PAAK 181011Z AUTO 14013KT 8SM SCT005 BKN023 10/09 A3020 RMK AO2 PNO $
PAAK 180956Z AUTO 14012KT 7SM BKN023 09/08 A3020 RMK AO2 SLP229 T00940083 PNO $
PAAK 180856Z AUTO 14010KT 9SM OVC021 11/09 A3021 RMK AO2 SLP232 6//// T01060089 401280106 56004 PNO $
PAAK 180756Z AUTO 09012KT 10SM OVC023 12/09 A3022 RMK AO2 SLP233 T01170094 PNO $
PAAK 180656Z AUTO 12010KT 10SM OVC021 12/09 A3021 RMK AO2 SLP232 T01170094 PNO $
PAAK 180556Z AUTO 13007KT 9SM OVC017 11/09 A3022 RMK AO2 SLP236 6//// T01110094 10128 20111 55002 PNO $
PAAK 180456Z AUTO 10011KT 9SM OVC017 12/09 A3022 RMK AO2 SLP234 T01170094 PNO $
PAAK 180356Z AUTO 14011KT 10SM OVC019 12/09 A3022 RMK AO2 SLP235 T01170094 PNO $
PAAK 180256Z AUTO 11014G21KT 10SM OVC015 12/09 A3023 RMK AO2 SLP238 6//// T01170094 56012 PNO $
PAAK 180156Z AUTO 12014KT 10SM OVC021 12/09 A3023 RMK AO2 SLP238 T01220094 PNO $
PAAK 172256Z AUTO 12014KT 10SM OVC021 12/09 A3028 RMK AO2 SLP256 T01220089 PNO $
PAAK 172156Z AUTO 11017KT 9SM OVC023 12/09 A3030 RMK AO2 SLP261 T01220089 PNO $
PAAK 172056Z AUTO 12017KT 8SM OVC027 13/09 A3030 RMK AO2 SLP261 6//// T01280094 51003 PNO $
PAAK 171856Z AUTO 11013KT 10SM OVC019 12/09 A3029 RMK AO2 SLP258 T01220094 PNO $
PAAK 171728Z AUTO 11011KT 10SM SCT016 OVC028 12/09 A3029 RMK AO2 PNO $
PAAK 171619Z AUTO 13013KT 7SM OVC010 12/10 A3029 RMK AO2 PNO $
PAAK 171556Z AUTO 13011KT 7SM OVC008 12/10 A3030 RMK AO2 SLP261 T01170100 PNO $
PAAK 171456Z AUTO 12012KT 4SM BR OVC008 11/10 A3031 RMK AO2 SLP267 6//// T01060100 58003 PNO $
PAAK 171356Z AUTO 12011KT 4SM BR OVC008 11/10 A3032 RMK AO2 SLP269 T01060100 PNO $
PAAK 171156Z AUTO 12016KT 5SM BR OVC008 12/11 A3032 RMK AO2 SLP269 6//// 7//// T01170106 10122 20106 55004 PNO $
PAAK 171056Z AUTO 12016KT 6SM BR OVC008 12/11 A3032 RMK AO2 SLP269 T01170106 PNO $
PAAK 170956Z AUTO 12019G24KT 6SM BR OVC008 12/11 A3033 RMK AO2 SLP271 T01220106 PNO $
PAAK 170856Z AUTO 11011KT 4SM BR OVC008 11/10 A3034 RMK AO2 SLP274 6//// T01060100 401280106 51001 PNO $
PAAK 170756Z AUTO 10015KT 4SM BR OVC008 11/10 A3033 RMK AO2 SLP273 T01110100 PNO $
PAAK 170719Z AUTO 11012KT 3SM BR OVC008 11/10 A3034 RMK AO2 PNO $
PAAK 170656Z AUTO 10012KT 2 1/2SM BR OVC008 11/10 A3033 RMK AO2 SLP274 T01110100 PNO $
PAAK 170653Z AUTO 10014KT 2 1/2SM BR OVC008 11/10 A3033 RMK AO2 PNO $
PAAK 170556Z AUTO 10015KT 3SM BR OVC008 12/11 A3033 RMK AO2 SLP273 6//// T01170106 10122 20117 58004 PNO $
PAAK 170456Z AUTO 11016G21KT 4SM BR OVC008 12/11 A3034 RMK AO2 SLP277 T01220106 PNO $
PAAK 170356Z AUTO 12014KT 4SM BR OVC010 12/11 A3034 RMK AO2 SLP276 T01220106 PNO $
PAAK 170256Z AUTO 11017KT 4SM BR OVC010 12/11 A3035 RMK AO2 SLP278 6//// T01220106 58004 PNO $